Time;durP1;ratioP1;P1;durP2;ratioP2;P2;SDS_P1;SDS_P2;PMS_P1;PMS_P2;Temp;Humidity;BMP_temperature;BMP_pressure;BME280_temperature;BME280_humidity;BME280_pressure;Samples;Min_cycle;Max_cycle;Signal;HPM_P1;HPM_P2
2021/10/20 00:00:45;;;;;;;10.38;7.10;;;;;;;13.93;82.50;100614.22;5011256;28;20069;-79
2021/10/20 00:03:10;;;;;;;11.00;7.55;;;;;;;13.92;82.40;100596.56;4997421;28;20046;-79
2021/10/20 00:05:36;;;;;;;10.63;7.20;;;;;;;13.89;82.38;100601.06;5013946;28;20136;-79
2021/10/20 00:08:06;;;;;;;10.65;7.45;;;;;;;13.86;82.32;100602.00;5014540;28;20081;-79
2021/10/20 00:10:32;;;;;;;9.95;6.70;;;;;;;13.82;82.07;100595.00;4995813;28;20041;-79
2021/10/20 00:12:57;;;;;;;9.45;6.97;;;;;;;13.75;82.52;100599.56;5013883;28;20061;-79
2021/10/20 00:15:23;;;;;;;10.48;7.82;;;;;;;13.67;82.96;100601.44;4995981;28;20496;-78
2021/10/20 00:17:49;;;;;;;9.52;7.80;;;;;;;13.63;82.63;100606.84;4996011;28;20045;-79
2021/10/20 00:20:19;;;;;;;9.15;7.28;;;;;;;13.62;83.19;100607.72;5013191;28;20037;-78
2021/10/20 00:22:45;;;;;;;10.93;7.75;;;;;;;13.61;83.22;100609.50;4996342;28;20046;-79
2021/10/20 00:25:12;;;;;;;10.73;7.28;;;;;;;13.61;83.33;100603.34;5013740;28;20034;-79
2021/10/20 00:27:37;;;;;;;8.85;7.13;;;;;;;13.57;83.52;100599.84;5013384;28;20065;-78
2021/10/20 00:30:04;;;;;;;9.55;8.05;;;;;;;13.59;82.99;100603.34;4999667;28;20116;-79
2021/10/20 00:32:29;;;;;;;9.70;7.07;;;;;;;13.58;83.39;100591.88;5013381;28;20203;-79
2021/10/20 00:34:54;;;;;;;8.18;6.72;;;;;;;13.58;83.17;100596.31;5017687;28;20034;-79
2021/10/20 00:37:20;;;;;;;8.55;6.53;;;;;;;13.59;82.99;100588.31;5010873;28;20041;-78
2021/10/20 00:39:45;;;;;;;8.38;6.72;;;;;;;13.58;83.08;100586.56;5022289;28;20026;-79
2021/10/20 00:42:10;;;;;;;10.07;6.75;;;;;;;13.56;82.95;100582.19;5014103;28;20421;-79
2021/10/20 00:44:47;;;;;;;8.50;6.75;;;;;;;13.51;82.80;100576.97;5016291;28;20100;-79
2021/10/20 00:47:13;;;;;;;8.95;6.43;;;;;;;13.46;82.98;100578.81;5024778;28;20048;-79
2021/10/20 00:49:38;;;;;;;9.15;7.00;;;;;;;13.42;82.68;100584.22;5014048;28;20117;-79
2021/10/20 00:52:04;;;;;;;9.95;7.47;;;;;;;13.36;83.00;100578.13;5017953;28;20564;-79
2021/10/20 00:54:29;;;;;;;9.40;6.93;;;;;;;13.32;83.58;100580.84;5014827;28;20045;-79
2021/10/20 00:56:55;;;;;;;11.85;7.43;;;;;;;13.33;83.56;100575.50;5000400;28;20655;-79
2021/10/20 00:59:20;;;;;;;8.38;6.70;;;;;;;13.36;83.69;100577.22;5015632;28;20045;-79
2021/10/20 01:01:45;;;;;;;13.93;7.72;;;;;;;13.35;84.15;100572.84;5016392;28;20473;-79
2021/10/20 01:04:11;;;;;;;10.40;7.50;;;;;;;13.32;83.30;100568.47;5015860;28;20064;-79
2021/10/20 01:06:37;;;;;;;10.00;7.18;;;;;;;13.30;83.73;100572.91;5011534;28;20037;-79
2021/10/20 01:09:03;;;;;;;9.60;7.68;;;;;;;13.29;83.95;100557.91;5013733;28;20049;-80
2021/10/20 01:11:28;;;;;;;11.80;7.55;;;;;;;13.32;83.91;100557.84;5017658;28;20041;-79
2021/10/20 01:13:54;;;;;;;9.45;7.28;;;;;;;13.31;83.62;100557.91;5012986;28;20034;-78
2021/10/20 01:16:20;;;;;;;9.98;7.22;;;;;;;13.27;83.53;100549.09;5015897;28;20174;-79
2021/10/20 01:18:46;;;;;;;9.02;6.97;;;;;;;13.24;83.35;100543.84;5013908;28;20113;-79
2021/10/20 01:21:19;;;;;;;10.35;7.80;;;;;;;13.20;83.36;100546.56;5016147;28;20500;-79
2021/10/20 01:23:46;;;;;;;10.25;7.32;;;;;;;13.15;83.24;100536.00;5012959;28;20450;-79
2021/10/20 01:26:11;;;;;;;9.77;7.75;;;;;;;13.10;83.17;100533.47;5017358;28;20033;-79
2021/10/20 01:28:36;;;;;;;8.70;7.32;;;;;;;13.04;82.92;100522.94;5012459;28;20104;-79
2021/10/20 01:31:02;;;;;;;9.35;7.28;;;;;;;12.96;83.26;100516.91;5016342;28;20518;-79
2021/10/20 01:33:27;;;;;;;9.82;7.47;;;;;;;12.93;84.13;100516.97;5015081;28;20034;-79
2021/10/20 01:35:52;;;;;;;9.75;7.50;;;;;;;12.89;84.37;100515.25;5009752;28;20400;-79
2021/10/20 01:38:18;;;;;;;10.00;7.35;;;;;;;12.87;84.00;100507.34;5013954;28;20026;-79
2021/10/20 01:40:43;;;;;;;8.65;7.00;;;;;;;12.86;84.10;100510.00;5014807;28;20034;-78
2021/10/20 01:43:08;;;;;;;10.45;7.70;;;;;;;12.80;83.90;100496.88;5015365;28;20034;-80
2021/10/20 01:45:34;;;;;;;10.15;7.60;;;;;;;12.74;83.47;100500.50;5016159;28;20116;-79
2021/10/20 01:47:59;;;;;;;9.20;6.95;;;;;;;12.70;83.49;100496.13;4996529;28;20061;-79
2021/10/20 01:50:24;;;;;;;8.77;6.50;;;;;;;12.65;84.07;100490.03;5016026;28;20057;-79
2021/10/20 01:52:50;;;;;;;10.00;6.13;;;;;;;12.61;84.18;100494.50;5012502;28;20034;-79
2021/10/20 01:55:16;;;;;;;7.07;6.22;;;;;;;12.57;84.27;100492.78;5015755;28;20060;-79
2021/10/20 01:57:42;;;;;;;10.07;7.15;;;;;;;12.58;84.41;100483.97;5012011;28;20018;-80
2021/10/20 02:00:08;;;;;;;8.63;6.10;;;;;;;12.57;84.42;100482.19;5014574;28;20050;-78
2021/10/20 02:02:38;;;;;;;10.15;7.43;;;;;;;12.52;83.61;100478.75;5012060;28;20038;-79
2021/10/20 02:05:05;;;;;;;10.90;6.88;;;;;;;12.48;83.76;100479.69;4999143;28;20073;-78
2021/10/20 02:07:30;;;;;;;9.30;6.85;;;;;;;12.46;83.58;100473.56;4995739;28;20085;-79
2021/10/20 02:09:55;;;;;;;11.00;7.03;;;;;;;12.46;84.49;100473.56;5014703;28;20046;-78
2021/10/20 02:12:21;;;;;;;9.52;7.07;;;;;;;12.45;84.93;100463.88;5012919;28;20041;-80
2021/10/20 02:14:46;;;;;;;12.27;7.90;;;;;;;12.41;85.64;100463.03;5014248;28;20050;-79
2021/10/20 02:17:11;;;;;;;8.88;6.30;;;;;;;12.39;85.65;100463.94;5014490;28;20042;-79
2021/10/20 02:19:37;;;;;;;9.45;7.03;;;;;;;12.37;85.73;100457.81;5013403;28;20661;-79
2021/10/20 02:22:04;;;;;;;8.75;6.13;;;;;;;12.37;85.91;100457.81;5014865;28;20084;-79
2021/10/20 02:24:29;;;;;;;8.40;6.32;;;;;;;12.39;85.90;100456.00;5011116;28;20038;-79
2021/10/20 02:26:55;;;;;;;8.43;6.18;;;;;;;12.37;85.32;100449.88;5014317;28;20112;-79
2021/10/20 02:29:20;;;;;;;9.63;6.32;;;;;;;12.37;85.15;100447.25;5010680;28;20455;-78
2021/10/20 02:31:46;;;;;;;7.40;5.80;;;;;;;12.37;85.26;100444.59;4996739;28;20045;-79
2021/10/20 02:34:21;;;;;;;8.35;5.47;;;;;;;12.37;85.70;100441.94;5009581;28;20069;-79
2021/10/20 02:36:47;;;;;;;6.95;4.95;;;;;;;12.39;85.55;100446.31;5014757;28;20046;-78
2021/10/20 02:39:13;;;;;;;7.57;5.18;;;;;;;12.42;85.41;100440.09;4998208;28;20042;-78
2021/10/20 02:41:38;;;;;;;9.48;4.95;;;;;;;12.44;85.23;100433.88;5010633;28;20042;-78
2021/10/20 02:44:05;;;;;;;6.78;5.40;;;;;;;12.48;84.80;100435.56;5010197;28;20068;-79
2021/10/20 02:46:31;;;;;;;9.85;6.43;;;;;;;12.46;84.77;100437.38;5013482;28;20046;-79
2021/10/20 02:48:56;;;;;;;7.47;5.38;;;;;;;12.41;84.41;100433.03;5015510;28;20042;-79
2021/10/20 02:51:21;;;;;;;7.40;6.20;;;;;;;12.39;84.69;100426.88;5022417;28;20041;-79
2021/10/20 02:53:47;;;;;;;9.35;6.40;;;;;;;12.34;84.43;100431.38;5020549;28;20040;-79
2021/10/20 02:56:14;;;;;;;10.90;7.75;;;;;;;12.30;84.74;100419.97;4998734;28;20451;-79
2021/10/20 02:58:40;;;;;;;8.27;6.43;;;;;;;12.24;84.81;100418.31;4994350;28;20477;-79
2021/10/20 03:01:05;;;;;;;7.45;5.13;;;;;;;12.20;84.63;100419.22;5013370;28;20097;-79
2021/10/20 03:03:30;;;;;;;6.97;5.35;;;;;;;12.19;84.95;100416.63;5015507;28;20041;-80
2021/10/20 03:05:56;;;;;;;8.75;6.47;;;;;;;12.16;84.91;100409.59;5014872;28;20105;-79
2021/10/20 03:08:21;;;;;;;7.45;5.07;;;;;;;12.13;84.88;100407.00;5014160;28;20048;-79
2021/10/20 03:10:47;;;;;;;7.50;5.13;;;;;;;12.11;84.88;100398.22;5019507;28;20104;-79
2021/10/20 03:13:12;;;;;;;11.05;7.68;;;;;;;12.10;85.02;100400.88;5015684;28;20116;-79
2021/10/20 03:15:38;;;;;;;7.47;5.82;;;;;;;12.07;84.94;100399.13;5000594;28;20042;-79
2021/10/20 03:18:03;;;;;;;7.97;6.22;;;;;;;12.08;85.20;100403.56;5014413;28;20034;-78
2021/10/20 03:20:28;;;;;;;7.78;5.50;;;;;;;12.09;85.71;100401.78;5015889;28;20176;-80
2021/10/20 03:22:54;;;;;;;8.98;6.05;;;;;;;12.09;85.67;100396.47;4997217;28;20489;-79
2021/10/20 03:25:19;;;;;;;6.68;4.70;;;;;;;12.09;85.84;100389.41;5009826;28;20046;-78
2021/10/20 03:27:47;;;;;;;6.93;4.78;;;;;;;12.12;85.70;100389.38;5012273;28;20045;-80
2021/10/20 03:30:16;;;;;;;9.40;5.78;;;;;;;12.14;85.42;100386.72;5015111;28;20034;-79
2021/10/20 03:32:42;;;;;;;9.43;5.30;;;;;;;12.16;85.05;100382.28;4997174;28;20404;-79
2021/10/20 03:35:09;;;;;;;6.40;4.20;;;;;;;12.21;85.14;100383.97;5015983;28;20026;-79
2021/10/20 03:37:34;;;;;;;7.95;4.93;;;;;;;12.21;84.60;100377.78;5015067;28;20037;-79
2021/10/20 03:40:00;;;;;;;5.07;3.83;;;;;;;12.24;84.28;100383.03;5016338;28;20080;-79
2021/10/20 03:42:25;;;;;;;8.77;3.95;;;;;;;12.25;83.91;100363.59;5014991;28;20102;-78
2021/10/20 03:44:51;;;;;;;5.30;3.78;;;;;;;12.25;83.98;100367.13;5012898;28;20603;-79
2021/10/20 03:47:19;;;;;;;4.68;2.88;;;;;;;12.30;83.88;100363.53;5016256;28;20070;-79
2021/10/20 03:49:45;;;;;;;5.22;3.42;;;;;;;12.36;83.87;100366.06;5002822;28;20047;-79
2021/10/20 03:52:11;;;;;;;5.05;3.65;;;;;;;12.39;83.41;100355.44;5012947;28;20113;-79
2021/10/20 03:54:36;;;;;;;5.85;4.00;;;;;;;12.41;82.94;100358.94;5017427;28;20030;-79
2021/10/20 03:57:01;;;;;;;6.22;4.13;;;;;;;12.37;82.49;100358.13;5012910;28;20029;-82
2021/10/20 03:59:27;;;;;;;7.10;3.90;;;;;;;12.33;82.99;100355.53;5013869;28;20603;-79
2021/10/20 04:05:56;;;;;;;4.45;2.95;;;;;;;12.25;82.90;100355.66;4948678;29;20070;-79
2021/10/20 04:08:22;;;;;;;6.50;4.78;;;;;;;12.19;82.78;100358.41;4970397;28;20424;-79
2021/10/20 04:10:47;;;;;;;5.78;3.97;;;;;;;12.11;83.15;100355.88;4999994;28;20102;-80
2021/10/20 04:13:12;;;;;;;5.78;3.22;;;;;;;12.12;82.91;100362.91;4998410;28;20053;-80
2021/10/20 04:15:38;;;;;;;5.43;3.72;;;;;;;12.11;82.99;100355.88;4999990;28;20038;-79
2021/10/20 04:18:04;;;;;;;6.97;3.40;;;;;;;12.14;82.64;100354.97;5006741;28;20030;-81
2021/10/20 04:20:29;;;;;;;4.63;3.28;;;;;;;12.16;82.25;100351.41;4997044;28;20030;-80
2021/10/20 04:22:54;;;;;;;5.95;4.07;;;;;;;12.13;82.04;100347.91;4990637;28;20061;-80
2021/10/20 04:25:20;;;;;;;5.15;3.58;;;;;;;12.07;81.86;100338.28;4994173;28;20091;-79
2021/10/20 04:27:47;;;;;;;5.50;3.60;;;;;;;12.06;81.59;100341.84;4999117;28;20518;-79
2021/10/20 04:30:15;;;;;;;4.75;3.70;;;;;;;12.03;81.67;100341.91;5007595;28;20018;-80
2021/10/20 04:32:41;;;;;;;6.72;4.70;;;;;;;12.02;81.53;100342.78;5001418;28;20101;-81
2021/10/20 04:35:08;;;;;;;6.07;3.88;;;;;;;12.01;81.90;100338.41;5001952;28;20034;-81
2021/10/20 04:37:33;;;;;;;6.75;4.85;;;;;;;11.99;82.13;100333.13;4998844;28;20027;-80
2021/10/20 04:39:59;;;;;;;8.75;6.15;;;;;;;11.99;81.43;100329.59;5007311;28;20035;-80
2021/10/20 04:42:27;;;;;;;6.55;4.82;;;;;;;12.03;81.98;100323.38;5006371;28;20034;-80
2021/10/20 04:44:52;;;;;;;7.30;4.55;;;;;;;12.07;81.49;100319.78;5004484;28;20053;-80
2021/10/20 04:47:18;;;;;;;9.15;6.45;;;;;;;12.11;81.16;100318.84;5002753;28;20473;-79
2021/10/20 04:49:43;;;;;;;9.55;5.97;;;;;;;12.13;80.70;100317.06;5023951;28;20037;-80
2021/10/20 04:52:10;;;;;;;6.90;3.50;;;;;;;12.15;80.49;100320.53;5003726;28;20069;-79
2021/10/20 04:54:35;;;;;;;5.25;3.35;;;;;;;12.20;80.75;100310.75;5005903;28;20034;-80
2021/10/20 04:57:00;;;;;;;5.90;3.40;;;;;;;12.25;79.81;100318.63;4997954;28;20057;-81
2021/10/20 04:59:27;;;;;;;5.05;3.53;;;;;;;12.29;80.10;100317.69;4996465;28;20046;-81
2021/10/20 05:01:53;;;;;;;4.18;2.60;;;;;;;12.33;79.46;100314.06;5005924;28;20481;-80
2021/10/20 05:04:18;;;;;;;7.35;5.65;;;;;;;12.34;79.49;100307.91;4997914;28;20088;-80
2021/10/20 05:06:43;;;;;;;12.32;8.45;;;;;;;12.37;79.00;100306.97;4998922;28;20066;-80
2021/10/20 05:09:09;;;;;;;7.78;4.80;;;;;;;12.37;78.75;100306.97;4996886;28;20041;-80
2021/10/20 05:11:34;;;;;;;5.88;3.65;;;;;;;12.35;78.90;100303.47;5005897;28;20034;-80
2021/10/20 05:13:59;;;;;;;5.50;3.42;;;;;;;12.38;78.73;100300.78;4998492;28;20042;-80
2021/10/20 05:16:25;;;;;;;6.32;3.53;;;;;;;12.37;78.02;100299.91;4999423;28;20038;-80
2021/10/20 05:18:50;;;;;;;6.10;3.70;;;;;;;12.36;77.93;100287.56;5005773;28;20042;-80
2021/10/20 05:21:15;;;;;;;6.38;4.10;;;;;;;12.34;78.21;100285.81;4989613;28;20109;-80
2021/10/20 05:23:41;;;;;;;8.27;4.60;;;;;;;12.33;78.52;100282.31;4999539;28;20065;-80
2021/10/20 05:26:06;;;;;;;7.97;5.15;;;;;;;12.32;78.38;100271.78;4999027;28;20022;-80
2021/10/20 05:28:31;;;;;;;6.50;4.43;;;;;;;12.27;78.08;100267.41;5003782;28;20038;-80
2021/10/20 05:30:57;;;;;;;7.18;4.18;;;;;;;12.20;78.47;100272.84;4997043;28;20042;-80
2021/10/20 05:33:22;;;;;;;7.70;4.53;;;;;;;12.15;78.25;100272.91;5005326;28;20049;-80
2021/10/20 05:35:47;;;;;;;7.63;4.95;;;;;;;12.17;78.04;100270.25;5000256;28;20402;-81
2021/10/20 05:38:13;;;;;;;6.43;4.03;;;;;;;12.15;77.77;100264.09;5007244;28;20042;-80
2021/10/20 05:40:38;;;;;;;7.28;4.22;;;;;;;12.12;78.12;100262.38;4998306;28;20401;-79
2021/10/20 05:43:03;;;;;;;6.63;3.63;;;;;;;12.10;77.99;100258.88;4999845;28;20045;-80
2021/10/20 05:45:29;;;;;;;8.07;5.97;;;;;;;12.09;78.40;100262.44;5000111;28;20034;-80
2021/10/20 05:47:54;;;;;;;6.25;3.60;;;;;;;11.96;78.09;100261.78;4999731;28;20094;-80
2021/10/20 05:50:48;;;;;;;8.52;4.25;;;;;;;11.88;78.53;100249.56;5063123;23;20136;-80
2021/10/20 05:53:13;;;;;;;6.43;3.95;;;;;;;11.94;78.44;100252.13;4991627;28;20092;-80
2021/10/20 05:55:40;;;;;;;7.93;4.85;;;;;;;12.02;77.51;100251.06;5029842;28;20033;-79
2021/10/20 06:02:03;;;;;;;6.53;3.65;;;;;;;12.26;75.76;100248.91;4973008;28;20041;-80
2021/10/20 06:04:29;;;;;;;6.05;3.33;;;;;;;12.39;75.19;100250.47;5010792;28;20552;-80
2021/10/20 06:07:06;;;;;;;4.82;2.85;;;;;;;12.58;74.08;100244.84;4974100;28;20061;-80
2021/10/20 06:09:34;;;;;;;6.50;2.83;;;;;;;12.75;73.47;100239.19;4992007;28;20041;-80
2021/10/20 06:12:00;;;;;;;4.40;2.45;;;;;;;12.89;72.42;100250.38;5008633;28;20092;-80
2021/10/20 06:14:26;;;;;;;5.25;3.05;;;;;;;13.10;70.52;100249.97;5010193;28;20052;-80
2021/10/20 06:16:51;;;;;;;5.82;2.75;;;;;;;13.32;70.00;100246.88;4991168;28;20043;-80
2021/10/20 06:19:16;;;;;;;4.88;2.28;;;;;;;13.51;68.46;100247.34;5012023;28;20069;-81
2021/10/20 06:21:42;;;;;;;5.53;2.13;;;;;;;13.66;68.32;100246.13;5011555;28;20118;-80
2021/10/20 06:24:07;;;;;;;5.40;2.20;;;;;;;13.79;67.45;100244.91;4997469;28;20071;-80
2021/10/20 06:26:33;;;;;;;4.82;2.50;;;;;;;13.89;66.92;100241.13;4993807;28;20046;-80
2021/10/20 06:28:58;;;;;;;4.70;2.00;;;;;;;13.97;66.45;100243.59;5014512;28;20096;-81
2021/10/20 06:31:24;;;;;;;8.10;2.38;;;;;;;14.08;66.10;100240.69;4994959;28;20057;-81
2021/10/20 06:33:49;;;;;;;4.65;2.42;;;;;;;14.15;65.06;100236.97;5013102;28;20034;-81
2021/10/20 06:36:31;;;;;;;5.63;2.05;;;;;;;14.25;64.33;100238.44;5013229;28;20034;-81
2021/10/20 06:38:57;;;;;;;5.97;2.60;;;;;;;14.31;65.10;100233.00;5011685;28;20100;-81
2021/10/20 06:41:22;;;;;;;7.70;3.13;;;;;;;14.31;65.52;100232.13;5011111;28;20038;-81
2021/10/20 06:43:49;;;;;;;5.82;2.75;;;;;;;14.32;65.25;100213.50;5009457;28;20057;-81
2021/10/20 06:46:15;;;;;;;4.97;2.80;;;;;;;14.32;64.95;100216.16;4994483;28;20034;-80
2021/10/20 06:48:41;;;;;;;4.97;2.50;;;;;;;14.37;64.51;100216.91;5014358;28;20034;-80
2021/10/20 06:51:07;;;;;;;6.65;2.50;;;;;;;14.38;64.54;100208.03;5011038;28;20615;-80
2021/10/20 06:53:33;;;;;;;6.63;2.40;;;;;;;14.42;64.32;100215.00;4996995;28;20513;-80
2021/10/20 06:56:00;;;;;;;4.63;2.65;;;;;;;14.52;63.32;100220.06;4995773;28;20041;-80
2021/10/20 06:58:25;;;;;;;7.10;2.67;;;;;;;14.67;62.83;100211.69;5013021;28;20485;-80
2021/10/20 07:00:50;;;;;;;4.22;2.38;;;;;;;14.84;62.26;100206.78;5013211;28;20049;-80
2021/10/20 07:03:15;;;;;;;5.15;2.90;;;;;;;14.93;62.14;100207.41;5004691;28;20497;-80
2021/10/20 07:05:41;;;;;;;5.35;2.47;;;;;;;14.94;61.51;100218.00;5014696;28;20041;-81
2021/10/20 07:08:06;;;;;;;5.28;2.05;;;;;;;14.97;60.90;100222.38;5011617;28;20587;-80
2021/10/20 07:10:32;;;;;;;5.05;2.10;;;;;;;15.03;60.67;100212.41;5014746;28;20492;-81
2021/10/20 07:12:57;;;;;;;3.17;1.77;;;;;;;15.15;60.73;100216.50;5007444;28;20085;-80
2021/10/20 07:15:23;;;;;;;4.10;1.98;;;;;;;15.30;60.44;100220.47;4997458;28;20051;-80
2021/10/20 07:17:48;;;;;;;4.53;2.35;;;;;;;15.41;59.45;100206.88;5011134;28;20062;-80
2021/10/20 07:20:14;;;;;;;5.13;2.00;;;;;;;15.56;59.12;100211.69;5013885;28;20685;-80
2021/10/20 07:22:39;;;;;;;4.45;2.15;;;;;;;15.72;58.41;100210.31;5012675;28;20037;-81
2021/10/20 07:25:10;;;;;;;3.90;1.88;;;;;;;15.99;57.67;100211.19;4995523;28;20039;-80
2021/10/20 07:27:36;;;;;;;4.95;2.33;;;;;;;16.24;57.57;100210.34;4994885;28;20045;-81
2021/10/20 07:30:03;;;;;;;4.70;1.92;;;;;;;16.42;55.46;100219.50;4995063;28;20034;-81
2021/10/20 07:32:29;;;;;;;3.25;1.73;;;;;;;16.64;56.10;100208.97;5011488;28;20042;-81
2021/10/20 07:34:54;;;;;;;4.60;1.77;;;;;;;16.87;55.73;100216.13;4995867;28;20042;-81
2021/10/20 07:37:19;;;;;;;5.43;1.60;;;;;;;17.04;54.57;100205.72;4995592;28;20045;-80
2021/10/20 07:39:45;;;;;;;3.47;1.58;;;;;;;17.19;53.47;100206.94;5014345;28;20030;-81
2021/10/20 07:42:10;;;;;;;4.38;1.98;;;;;;;17.37;52.49;100204.44;5011824;28;20121;-81
2021/10/20 07:44:35;;;;;;;3.83;1.85;;;;;;;17.57;51.72;100201.00;5013885;28;20069;-81
2021/10/20 07:47:01;;;;;;;5.45;1.70;;;;;;;17.74;51.29;100193.19;5011342;28;20065;-81
2021/10/20 07:49:26;;;;;;;6.80;2.30;;;;;;;17.77;50.67;100187.72;5014935;28;20053;-81
2021/10/20 07:51:56;;;;;;;6.28;1.85;;;;;;;17.84;51.06;100183.91;5014929;28;20045;-81
2021/10/20 07:54:21;;;;;;;4.20;1.90;;;;;;;17.90;49.83;100186.31;5012530;28;20041;-81
2021/10/20 07:56:47;;;;;;;5.22;2.13;;;;;;;17.94;50.02;100185.22;5015310;28;20038;-80
2021/10/20 07:59:12;;;;;;;6.43;2.28;;;;;;;18.04;49.82;100174.19;5013117;28;20034;-81
2021/10/20 08:01:37;;;;;;;3.33;1.88;;;;;;;18.05;48.44;100178.56;5014208;28;20037;-81
2021/10/20 08:04:03;;;;;;;4.35;1.85;;;;;;;18.15;48.92;100177.25;5014996;28;20038;-81
2021/10/20 08:06:28;;;;;;;4.88;2.00;;;;;;;18.26;47.79;100167.00;4996810;28;20053;-82
2021/10/20 08:08:53;;;;;;;5.55;2.50;;;;;;;18.40;48.17;100156.53;5014576;28;20037;-81
2021/10/20 08:11:19;;;;;;;6.43;1.95;;;;;;;18.48;47.92;100145.53;5012684;28;20085;-81
2021/10/20 08:13:44;;;;;;;4.80;2.20;;;;;;;18.55;47.97;100156.81;4996817;28;20041;-81
2021/10/20 08:16:09;;;;;;;3.97;1.90;;;;;;;18.55;48.15;100154.13;5012438;28;20042;-81
2021/10/20 08:18:35;;;;;;;3.88;1.80;;;;;;;18.54;46.87;100152.38;4998549;28;20038;-81
2021/10/20 08:21:00;;;;;;;6.80;1.90;;;;;;;18.40;46.16;100150.34;5012389;28;20042;-81
2021/10/20 08:23:28;;;;;;;5.68;1.98;;;;;;;18.45;45.65;100152.81;5014759;28;20041;-81
2021/10/20 08:25:54;;;;;;;3.75;1.90;;;;;;;18.53;45.20;100150.66;5012718;28;20424;-81
2021/10/20 08:28:19;;;;;;;4.22;2.20;;;;;;;18.59;46.04;100150.38;5015311;28;20038;-81
2021/10/20 08:30:44;;;;;;;6.45;2.50;;;;;;;18.66;46.00;100146.50;5013191;28;20097;-81
2021/10/20 08:33:09;;;;;;;5.60;2.10;;;;;;;18.64;44.80;100140.34;4996463;28;20066;-81
2021/10/20 08:35:37;;;;;;;3.35;1.60;;;;;;;18.74;45.41;100146.16;4994538;28;20034;-81
2021/10/20 08:38:04;;;;;;;6.70;1.95;;;;;;;18.70;44.25;100137.38;4990131;28;20038;-81
2021/10/20 08:44:26;;;;;;;5.25;1.70;;;;;;;18.76;44.54;100129.13;5040907;28;20047;-81
2021/10/20 08:46:52;;;;;;;4.45;1.88;;;;;;;18.76;44.30;100123.78;5035501;28;20037;-81
2021/10/20 08:49:18;;;;;;;6.57;2.00;;;;;;;18.73;43.87;100121.22;5063915;28;20033;-81
2021/10/20 08:51:45;;;;;;;3.70;1.90;;;;;;;18.81;43.03;100112.84;5068449;28;20063;-81
2021/10/20 08:54:10;;;;;;;4.20;1.70;;;;;;;18.90;42.27;100117.78;5037716;28;20068;-81
2021/10/20 08:56:36;;;;;;;5.70;2.08;;;;;;;19.03;43.93;100110.03;5074603;28;20084;-80
2021/10/20 08:59:02;;;;;;;5.72;2.00;;;;;;;19.08;44.18;100113.38;5049773;28;20639;-81
2021/10/20 09:01:27;;;;;;;4.93;2.35;;;;;;;19.03;42.70;100107.38;5074456;28;20088;-81
2021/10/20 09:03:53;;;;;;;5.43;2.10;;;;;;;19.13;43.86;100097.97;5036986;28;20561;-81
2021/10/20 09:06:18;;;;;;;3.85;1.90;;;;;;;19.14;43.68;100098.81;5073533;28;20052;-81
2021/10/20 09:08:46;;;;;;;3.55;1.80;;;;;;;19.09;42.81;100101.72;5066397;28;20072;-81
2021/10/20 09:11:33;;;;;;;4.13;1.70;;;;;;;19.17;43.16;100098.69;5038082;28;20037;-81
2021/10/20 09:14:05;;;;;;;3.95;2.13;;;;;;;19.33;43.76;100085.41;5068344;28;20047;-81
2021/10/20 09:16:33;;;;;;;5.68;1.77;;;;;;;19.34;43.02;100085.34;5053873;28;20044;-81
2021/10/20 09:19:09;;;;;;;3.92;2.10;;;;;;;19.47;43.11;100075.75;5071100;28;20092;-80
2021/10/20 09:21:47;;;;;;;7.68;2.30;;;;;;;19.62;42.77;100091.97;5071816;28;20070;-81
2021/10/20 09:24:13;;;;;;;4.35;1.85;;;;;;;19.70;42.10;100077.31;5067027;28;20036;-81
2021/10/20 09:26:38;;;;;;;4.88;1.70;;;;;;;19.86;42.16;100077.41;5049353;28;20073;-81
2021/10/20 09:29:18;;;;;;;5.10;1.90;;;;;;;20.01;42.49;100083.75;5073264;28;20044;-81
2021/10/20 09:31:44;;;;;;;5.10;1.77;;;;;;;20.18;42.22;100080.19;5066821;28;20060;-81
2021/10/20 09:34:10;;;;;;;4.03;1.70;;;;;;;20.11;41.32;100071.59;5074301;28;20482;-81
2021/10/20 09:36:35;;;;;;;3.45;1.80;;;;;;;20.25;41.66;100070.88;5054138;28;20123;-81
2021/10/20 09:39:00;;;;;;;3.42;1.85;;;;;;;20.34;41.58;100061.47;5057665;28;20033;-81
2021/10/20 09:41:26;;;;;;;4.32;1.90;;;;;;;20.42;42.24;100061.94;5095530;22;20504;-81
2021/10/20 09:44:33;;;;;;;3.53;1.80;;;;;;;20.52;40.51;100068.50;5021497;28;20092;-81
2021/10/20 09:46:58;;;;;;;4.93;1.60;;;;;;;20.62;41.57;100068.91;5019212;28;20046;-81
2021/10/20 09:49:24;;;;;;;6.63;1.67;;;;;;;20.78;41.85;100047.47;5022360;28;20040;-81
2021/10/20 09:51:56;;;;;;;4.38;2.00;;;;;;;20.83;41.38;100048.09;5023147;28;20037;-81
2021/10/20 09:54:26;;;;;;;;;;;;;;;20.90;40.48;100043.22;5019614;28;20069;-81
2021/10/20 09:56:53;;;;;;;3.42;1.50;;;;;;;20.87;40.37;100040.72;5023021;28;19928;-80
2021/10/20 09:59:19;;;;;;;3.30;1.67;;;;;;;20.88;40.32;100040.66;5005405;28;20026;-81
2021/10/20 10:01:45;;;;;;;3.47;1.70;;;;;;;20.92;40.59;100028.78;5022629;28;20041;-82
2021/10/20 10:04:10;;;;;;;3.17;1.65;;;;;;;20.89;40.76;100020.03;5020481;28;20041;-81
2021/10/20 10:06:38;;;;;;;7.30;1.65;;;;;;;20.99;40.61;100032.84;5017699;28;20033;-80
2021/10/20 10:09:06;;;;;;;4.75;2.03;;;;;;;20.97;40.25;100033.88;5017691;28;20042;-81
2021/10/20 10:11:31;;;;;;;3.90;1.70;;;;;;;21.08;40.92;100030.59;5019768;28;20037;-81
2021/10/20 10:14:02;;;;;;;5.30;1.85;;;;;;;21.09;39.52;100014.41;5020795;28;20030;-81
2021/10/20 10:16:28;;;;;;;6.03;1.88;;;;;;;21.18;40.48;100013.00;5019081;28;20049;-81
2021/10/20 10:18:56;;;;;;;3.35;1.83;;;;;;;21.09;40.25;100010.84;5020992;28;20026;-81
2021/10/20 10:21:37;;;;;;;5.28;1.60;;;;;;;21.30;40.19;100006.91;5019657;28;20053;-81
2021/10/20 10:24:04;;;;;;;4.40;1.80;;;;;;;21.44;39.71;100001.63;5014934;28;20035;-81
2021/10/20 10:26:56;;;;;;;3.97;2.08;;;;;;;21.47;39.37;99999.72;5021469;28;20036;-79
2021/10/20 10:29:21;;;;;;;3.67;1.90;;;;;;;21.57;39.60;99996.38;5025790;28;20037;-81
2021/10/20 10:31:47;;;;;;;4.30;1.75;;;;;;;21.42;38.87;99987.41;5025955;28;20041;-81
2021/10/20 10:34:24;;;;;;;3.35;1.73;;;;;;;21.48;38.94;99983.50;5028558;28;20034;-81
2021/10/20 10:36:54;;;;;;;6.50;2.58;;;;;;;21.44;39.56;99979.28;5028826;28;20037;-81
2021/10/20 10:39:21;;;;;;;3.95;1.90;;;;;;;21.49;39.04;99970.97;5025762;28;20049;-80
2021/10/20 10:41:48;;;;;;;4.20;2.17;;;;;;;21.58;39.81;99962.34;5027164;28;20089;-80
2021/10/20 10:44:25;;;;;;;7.15;2.17;;;;;;;21.60;39.34;99957.75;5043572;28;20084;-80
2021/10/20 10:46:53;;;;;;;4.75;2.13;;;;;;;21.45;39.45;99960.38;5020792;28;20041;-81
2021/10/20 10:49:26;;;;;;;5.25;2.03;;;;;;;21.54;39.76;99961.66;5016048;28;20045;-80
2021/10/20 10:52:18;;;;;;;3.45;1.77;;;;;;;21.50;39.66;99944.00;5012113;28;20126;-81
2021/10/20 10:55:08;;;;;;;3.38;1.83;;;;;;;21.68;40.35;99933.97;5012149;28;20030;-81
2021/10/20 10:57:38;;;;;;;3.58;1.63;;;;;;;21.70;40.33;99931.19;5013233;28;20045;-80
2021/10/20 11:00:17;;;;;;;4.93;1.90;;;;;;;21.65;40.06;99910.00;5022142;28;20029;-81
2021/10/20 11:02:51;;;;;;;3.60;1.92;;;;;;;21.53;39.59;99908.91;5023508;28;20037;-81
2021/10/20 11:05:20;;;;;;;4.82;1.88;;;;;;;21.63;40.60;99891.28;5022635;28;20038;-80
2021/10/20 11:07:49;;;;;;;4.90;2.38;;;;;;;21.71;40.50;99885.44;5028359;28;20045;-81
2021/10/20 11:14:55;;;;;;;;;;;;;;;;;;;;;
2021/10/20 11:17:46;;;;;;;4.10;1.55;;;;;;;21.77;40.66;99878.81;5075056;28;20055;-81
2021/10/20 11:20:14;;;;;;;4.28;1.77;;;;;;;21.82;40.05;99884.75;5077316;28;20036;-80
2021/10/20 11:22:43;;;;;;;4.07;1.80;;;;;;;21.91;40.24;99875.25;5085920;28;20423;-81
2021/10/20 11:25:11;;;;;;;3.97;1.90;;;;;;;21.95;40.61;99874.94;5076892;28;20040;-81
2021/10/20 11:27:37;;;;;;;3.58;1.88;;;;;;;21.98;40.02;99860.47;5077211;28;20028;-80
2021/10/20 11:30:04;;;;;;;3.60;2.08;;;;;;;22.07;39.17;99863.44;5073038;28;20118;-81
2021/10/20 11:32:29;;;;;;;5.28;2.10;;;;;;;22.24;39.33;99854.31;5076426;28;20090;-80
2021/10/20 11:34:55;;;;;;;4.53;1.90;;;;;;;22.24;39.26;99840.88;5077975;28;20033;-81
2021/10/20 11:37:23;;;;;;;5.13;1.88;;;;;;;22.27;38.39;99834.44;5072678;28;20037;-80
2021/10/20 11:39:55;;;;;;;3.10;1.83;;;;;;;22.40;38.27;99829.97;5068162;28;20040;-80
2021/10/20 11:42:21;;;;;;;6.30;2.13;;;;;;;22.49;38.22;99823.13;5090011;28;20067;-80